ADDS METAR Data INFO
IDs: Format: Raw Decoded Include TAF

Data at: 0346 UTC 19 Feb 2018

KAUG 190253Z AUTO 28003KT 10SM CLR M01/M09 A3049 RMK AO2 SLP329 T10111089 53030
KAUG 190153Z AUTO 00000KT 10SM CLR M01/M08 A3046 RMK AO2 SLP321 T10111083
KAUG 190053Z AUTO 00000KT 10SM CLR M01/M08 A3042 RMK AO2 SLP305 T10061083
KAUG 182353Z AUTO 33006KT 10SM OVC050 01/M08 A3040 RMK AO2 SLP299 60000 T00111078 10033 20006 51051
KAUG 182253Z AUTO 30006KT 10SM OVC055 01/M08 A3035 RMK AO2 SLP283 T00061078
KAUG 182153Z AUTO 32008KT 10SM BKN050 02/M08 A3030 RMK AO2 SLP264 T00171078
KAUG 182053Z AUTO 32010KT 10SM CLR 02/M08 A3025 RMK AO2 SLP246 60000 T00221078 53036
KAUG 181953Z AUTO 31009G15KT 10SM FEW049 03/M08 A3020 RMK AO2 SLP232 T00331078
KAUG 181853Z AUTO 34014G19KT 10SM CLR 02/M07 A3013 RMK AO2 RAB15E23 SLP209 P0000 T00221067
KAUG 181753Z AUTO 34017G27KT 10SM FEW042 02/M07 A3014 RMK AO2 PK WND 33027/1748 RAE1655 SLP210 P0000 60001 T00221067 10022 21039 51025
KAUG 181653Z AUTO 30010G23KT 10SM -RA SCT041 02/M07 A3012 RMK AO2 RAB30 SLP205 P0000 T00221067
KAUG 181553Z AUTO 31011G18KT 280V350 10SM FEW031 02/M04 A3011 RMK AO2 SLP201 T00171044
KAUG 181453Z AUTO 33009KT 10SM CLR M01/M04 A3006 RMK AO2 UPE01 SLP185 P0000 60001 T10111039 53025
KAUG 181353Z AUTO 33007KT 10SM UP BKN100 M03/M04 A3004 RMK AO2 UPB08SNE08 SLP176 P0000 T10281044
KAUG 181253Z AUTO 33007KT 3SM -SN BR BKN046 OVC055 M04/M04 A3001 RMK AO2 SLP168 P0001 T10391044
KAUG 181234Z AUTO 34007KT 2 1/2SM -SN BR BKN032 OVC044 M04/M04 A3000 RMK AO2 P0001 T10391044
KAUG 181224Z AUTO 34007KT 1 1/2SM -SN BR FEW013 OVC021 M04/M04 A3000 RMK AO2 P0001 T10391044
KAUG 181212Z AUTO 34006KT 3/4SM -SN BR VV016 M04/M04 A2999 RMK AO2 P0001 T10391044
KAUG 181153Z AUTO 35007KT 1SM -SN BR VV018 M04/M04 A2999 RMK AO2 SLP160 P0000 60015 70023 T10391044 11011 21039 53015
KAUG 181053Z AUTO 34009KT 1SM -SN BR VV015 M04/M05 A2996 RMK AO2 SLP151 P0002 T10391050
KAUG 181002Z AUTO 34008KT 1SM -SN BR VV012 M03/M04 A2994 RMK AO2 P0001 T10331044
KAUG 180953Z AUTO 34008KT 3/4SM -SN BR VV012 M03/M04 A2994 RMK AO2 SLP144 P0001 T10331044
KAUG 180950Z AUTO 34008KT 3/4SM -SN BR VV012 M03/M04 A2994 RMK AO2 P0001
KAUG 180853Z AUTO 33007KT 1 1/2SM -SN BR SCT004 OVC010 M03/M04 A2994 RMK AO2 SLP144 P0003 60012 T10331039 56039
KAUG 180820Z AUTO 33005KT 1 1/2SM -SN BR BKN004 OVC008 M03/M04 A2995 RMK AO2 P0001 T10331039
KAUG 180753Z AUTO 00000KT 1 1/2SM -SN BR FEW004 OVC008 M02/M02 A2997 RMK AO2 SLP153 P0004 T10171017
KAUG 180739Z AUTO 15003KT 1SM -SN BR FEW004 OVC009 M02/M02 A2997 RMK AO2 P0004 T10171022
KAUG 180720Z AUTO 15003KT 1SM -SN BR VV011 M02/M03 A2999 RMK AO2 P0003 T10221028
KAUG 180702Z AUTO 00000KT 3/4SM -SN BR VV011 M02/M02 A3000 RMK AO2 PRESFR P0001 T10171022
KAUG 180653Z AUTO 00000KT 3/4SM -SN BR VV009 M02/M02 A3001 RMK AO2 SLP168 P0005 T10171022
KAUG 180628Z AUTO 15004KT 1/2SM SN FZFG VV009 M02/M03 A3003 RMK AO2 P0003 T10221028
KAUG 180553Z AUTO 15004KT 3/4SM -SN BR FEW004 OVC010 M03/M03 A3006 RMK AO2 SLP184 P0004 60008 T10281033 11028 21033 58036
KAUG 180537Z AUTO 15003KT 1SM -SN BR SCT006 OVC010 M03/M03 A3007 RMK AO2 P0002 T10281033
KAUG 180453Z AUTO 20003KT 1SM -SN BR OVC010 M03/M04 A3010 RMK AO2 SNB0354 SLP197 P0004 T10331039 410111089
KAUG 180449Z AUTO 21003KT 1SM -SN BR VV010 M03/M04 A3010 RMK AO2 SNB0354 P0003
KAUG 180435Z AUTO 18003KT 1/2SM SN FZFG VV009 M03/M04 A3011 RMK AO2 SNB0354 P0003 T10331039
KAUG 180415Z AUTO 00000KT 3/4SM -SN BR VV014 M03/M05 A3012 RMK AO2 SNB0354 P0001 T10331050
KAUG 180408Z AUTO 20003KT 1SM -SN BR VV018 M03/M05 A3012 RMK AO2 SNB0354 P0000 T10281050
KAUG 180400Z AUTO 00000KT 2 1/2SM -SN OVC025 M03/M07 A3013 RMK AO2 SNB0354 P0000 T10281067
KAUG 180353Z AUTO 00000KT 7SM FEW023 OVC032 M03/M07 A3013 RMK AO2 SLP208 T10281067
KAUG 180253Z AUTO 13005KT 10SM SCT027 BKN035 OVC044 M03/M08 A3016 RMK AO2 SLP221 T10331078 58034
KAUG 180153Z AUTO 13003KT 10SM FEW120 M03/M09 A3021 RMK AO2 SLP238 T10331089
KAUG 180101Z AUTO 11003KT 10SM SCT024 BKN120 M03/M09 A3024 RMK AO2 T10331089
KAUG 180053Z AUTO 13006KT 10SM BKN024 BKN120 M03/M09 A3025 RMK AO2 SLP249 T10331094
KAUG 180038Z AUTO 14005KT 10SM BKN022 M03/M09 A3026 RMK AO2 T10331094
KAUG 172353Z AUTO 17005KT 10SM CLR M03/M11 A3027 RMK AO2 SLP256 T10331106 11011 21033 58016
KAUG 172253Z AUTO 16008KT 10SM CLR M03/M11 A3028 RMK AO2 SLP261 T10331111
KAUG 172153Z AUTO 18007KT 10SM CLR M03/M13 A3030 RMK AO2 SLP268 T10281133
KAUG 172053Z AUTO 18007KT 10SM CLR M02/M15 A3031 RMK AO2 SLP272 T10171150 56002
KAUG 171953Z AUTO 18006KT 10SM CLR M02/M16 A3031 RMK AO2 SLP271 T10171156
KAUG 171853Z AUTO VRB03KT 10SM CLR M02/M17 A3030 RMK AO2 SLP265 T10221167
KAUG 171753Z AUTO 00000KT 10SM CLR M02/M17 A3032 RMK AO2 SLP273 T10221167 11022 21089 58026
KAUG 171653Z AUTO 10SM CLR M03/M17 A3035 RMK AO2 SLP284 T10331172
KAUG 171553Z AUTO 33004KT 10SM CLR M04/M18 A3037 RMK AO2 SLP291 T10441178